Severnoe, Russia
Current Conditions -  °F | °C
As of 10:30 AM on Monday 22 Dec 2014 (Local Time) from UNNT Reporting Station
Overcast Overcast  
Wind Chill: 18°   Ceiling: 3300
Heat Index: 27°   Visibility: 6mi
Dew Point: 23°   Wind: 9mph
Humidity: 86%   Direction: 180°S
Pressure: 30.12"   Gusts: NA
Location:  56.35°N, 78.35°E
Report Text: UNNT 220330Z 18004MPS 9000 SCT014 OVC033 M03/M05 Q1020 2539013616390130 NOSIG RMK QFE755/1007
Loading
Personal Weather Stations






























Interactive Weather Map New forecast layout! Learn more

10-Day Weather Forecast

Advertisements
Track Severe Weather on mobile